sensor_id;sensor_type;location;lat;lon;timestamp;pressure;altitude;pressure_sealevel;temperature;humidity
77153;BME280;66124;51.146;17.072;2023-11-22T00:00:09;100804.61;;;0.51;84.98
77153;BME280;66124;51.146;17.072;2023-11-22T00:08:07;100806.58;;;0.58;84.75
77153;BME280;66124;51.146;17.072;2023-11-22T00:10:37;100804.41;;;0.54;85.10
77153;BME280;66124;51.146;17.072;2023-11-22T00:13:06;100809.55;;;0.50;85.03
77153;BME280;66124;51.146;17.072;2023-11-22T00:15:36;100807.15;;;0.49;84.99
77153;BME280;66124;51.146;17.072;2023-11-22T00:18:05;100811.74;;;0.48;85.30
77153;BME280;66124;51.146;17.072;2023-11-22T00:20:36;100817.05;;;0.46;84.93
77153;BME280;66124;51.146;17.072;2023-11-22T00:23:05;100822.01;;;0.45;85.09
77153;BME280;66124;51.146;17.072;2023-11-22T00:25:34;100827.05;;;0.41;84.99
77153;BME280;66124;51.146;17.072;2023-11-22T00:28:04;100830.52;;;0.39;85.05
77153;BME280;66124;51.146;17.072;2023-11-22T00:30:34;100831.12;;;0.32;84.75
77153;BME280;66124;51.146;17.072;2023-11-22T00:33:03;100832.48;;;0.27;84.96
77153;BME280;66124;51.146;17.072;2023-11-22T00:35:33;100839.66;;;0.26;85.26
77153;BME280;66124;51.146;17.072;2023-11-22T00:38:02;100850.32;;;0.24;85.26
77153;BME280;66124;51.146;17.072;2023-11-22T00:40:32;100859.63;;;0.22;85.05
77153;BME280;66124;51.146;17.072;2023-11-22T00:43:01;100862.77;;;0.21;85.02
77153;BME280;66124;51.146;17.072;2023-11-22T00:45:30;100872.42;;;0.19;84.91
77153;BME280;66124;51.146;17.072;2023-11-22T00:48:00;100875.98;;;0.18;85.11
77153;BME280;66124;51.146;17.072;2023-11-22T00:50:29;100881.74;;;0.17;85.10
77153;BME280;66124;51.146;17.072;2023-11-22T00:52:59;100876.91;;;0.17;85.15
77153;BME280;66124;51.146;17.072;2023-11-22T00:55:28;100873.38;;;0.15;85.13
77153;BME280;66124;51.146;17.072;2023-11-22T00:57:58;100871.45;;;0.16;85.01
77153;BME280;66124;51.146;17.072;2023-11-22T01:00:27;100875.00;;;0.17;85.23
77153;BME280;66124;51.146;17.072;2023-11-22T01:02:57;100875.15;;;0.17;85.25
77153;BME280;66124;51.146;17.072;2023-11-22T01:05:26;100879.44;;;0.18;85.27
77153;BME280;66124;51.146;17.072;2023-11-22T01:07:55;100879.52;;;0.19;85.15
77153;BME280;66124;51.146;17.072;2023-11-22T01:10:25;100874.36;;;0.22;85.23
77153;BME280;66124;51.146;17.072;2023-11-22T01:12:54;100866.85;;;0.23;85.27
77153;BME280;66124;51.146;17.072;2023-11-22T01:15:24;100875.36;;;0.22;85.15
77153;BME280;66124;51.146;17.072;2023-11-22T01:17:52;100879.64;;;0.20;85.06
77153;BME280;66124;51.146;17.072;2023-11-22T01:20:19;100882.50;;;0.16;85.05
77153;BME280;66124;51.146;17.072;2023-11-22T01:27:38;100882.41;;;0.12;85.09
77153;BME280;66124;51.146;17.072;2023-11-22T01:30:09;100890.73;;;0.09;85.01
77153;BME280;66124;51.146;17.072;2023-11-22T01:32:39;100887.17;;;0.05;84.82
77153;BME280;66124;51.146;17.072;2023-11-22T01:35:09;100892.27;;;0.04;84.75
77153;BME280;66124;51.146;17.072;2023-11-22T01:37:38;100890.40;;;0.03;84.84
77153;BME280;66124;51.146;17.072;2023-11-22T01:40:09;100889.10;;;0.02;84.78
77153;BME280;66124;51.146;17.072;2023-11-22T01:42:40;100891.86;;;0.02;84.99
77153;BME280;66124;51.146;17.072;2023-11-22T01:45:12;100894.95;;;0.02;85.00
77153;BME280;66124;51.146;17.072;2023-11-22T01:47:42;100898.16;;;0.03;84.54
77153;BME280;66124;51.146;17.072;2023-11-22T01:50:12;100892.92;;;0.04;84.70
77153;BME280;66124;51.146;17.072;2023-11-22T01:52:42;100891.83;;;0.02;84.43
77153;BME280;66124;51.146;17.072;2023-11-22T01:55:11;100899.05;;;0.00;84.43
77153;BME280;66124;51.146;17.072;2023-11-22T01:57:41;100902.71;;;-0.00;84.37
77153;BME280;66124;51.146;17.072;2023-11-22T02:00:12;100903.99;;;-0.02;84.33
77153;BME280;66124;51.146;17.072;2023-11-22T02:02:42;100904.70;;;-0.02;84.43
77153;BME280;66124;51.146;17.072;2023-11-22T02:05:12;100906.16;;;-0.06;84.32
77153;BME280;66124;51.146;17.072;2023-11-22T02:07:42;100911.67;;;-0.05;84.30
77153;BME280;66124;51.146;17.072;2023-11-22T02:10:11;100918.52;;;-0.05;84.15
77153;BME280;66124;51.146;17.072;2023-11-22T02:12:41;100925.39;;;-0.04;84.20
77153;BME280;66124;51.146;17.072;2023-11-22T02:15:11;100928.96;;;-0.03;84.29
77153;BME280;66124;51.146;17.072;2023-11-22T02:17:41;100928.37;;;-0.04;84.03
77153;BME280;66124;51.146;17.072;2023-11-22T02:20:12;100929.91;;;-0.07;83.90
77153;BME280;66124;51.146;17.072;2023-11-22T02:22:48;100933.90;;;-0.10;83.76
77153;BME280;66124;51.146;17.072;2023-11-22T02:25:18;100940.95;;;-0.09;83.59
77153;BME280;66124;51.146;17.072;2023-11-22T02:27:48;100944.65;;;-0.08;83.72
77153;BME280;66124;51.146;17.072;2023-11-22T02:30:17;100946.50;;;-0.07;83.83
77153;BME280;66124;51.146;17.072;2023-11-22T02:32:47;100952.81;;;-0.06;83.83
77153;BME280;66124;51.146;17.072;2023-11-22T02:35:16;100958.95;;;-0.04;83.53
77153;BME280;66124;51.146;17.072;2023-11-22T02:37:46;100958.55;;;-0.03;83.62
77153;BME280;66124;51.146;17.072;2023-11-22T02:40:15;100960.36;;;-0.02;83.73
77153;BME280;66124;51.146;17.072;2023-11-22T02:47:37;100965.86;;;-0.01;83.23
77153;BME280;66124;51.146;17.072;2023-11-22T02:50:08;100971.64;;;-0.03;83.16
77153;BME280;66124;51.146;17.072;2023-11-22T02:52:38;100978.95;;;-0.04;82.96
77153;BME280;66124;51.146;17.072;2023-11-22T02:55:09;100979.48;;;-0.04;83.18
77153;BME280;66124;51.146;17.072;2023-11-22T02:57:39;100981.91;;;-0.04;83.05
77153;BME280;66124;51.146;17.072;2023-11-22T03:00:10;100993.86;;;-0.05;83.06
77153;BME280;66124;51.146;17.072;2023-11-22T03:02:40;100996.95;;;-0.04;82.96
77153;BME280;66124;51.146;17.072;2023-11-22T03:05:10;100998.06;;;-0.05;82.69
77153;BME280;66124;51.146;17.072;2023-11-22T03:07:40;101003.13;;;-0.06;82.79
77153;BME280;66124;51.146;17.072;2023-11-22T03:10:10;101013.88;;;-0.06;82.69
77153;BME280;66124;51.146;17.072;2023-11-22T03:12:40;101016.03;;;-0.08;82.76
77153;BME280;66124;51.146;17.072;2023-11-22T03:15:11;101023.09;;;-0.07;83.01
77153;BME280;66124;51.146;17.072;2023-11-22T03:17:40;101023.48;;;-0.05;82.90
77153;BME280;66124;51.146;17.072;2023-11-22T03:20:11;101026.31;;;-0.04;83.22
77153;BME280;66124;51.146;17.072;2023-11-22T03:22:40;101029.16;;;-0.02;83.03
77153;BME280;66124;51.146;17.072;2023-11-22T03:25:11;101031.27;;;-0.03;83.27
77153;BME280;66124;51.146;17.072;2023-11-22T03:27:40;101039.37;;;-0.03;83.14
77153;BME280;66124;51.146;17.072;2023-11-22T03:30:11;101045.65;;;-0.04;83.35
77153;BME280;66124;51.146;17.072;2023-11-22T03:32:41;101055.66;;;-0.06;83.29
77153;BME280;66124;51.146;17.072;2023-11-22T03:35:11;101058.20;;;-0.11;83.04
77153;BME280;66124;51.146;17.072;2023-11-22T03:37:40;101065.49;;;-0.15;83.07
77153;BME280;66124;51.146;17.072;2023-11-22T03:40:11;101069.52;;;-0.18;82.97
77153;BME280;66124;51.146;17.072;2023-11-22T03:42:41;101072.67;;;-0.22;82.95
77153;BME280;66124;51.146;17.072;2023-11-22T03:45:11;101072.66;;;-0.25;82.93
77153;BME280;66124;51.146;17.072;2023-11-22T03:47:40;101077.90;;;-0.28;82.74
77153;BME280;66124;51.146;17.072;2023-11-22T03:50:10;101084.41;;;-0.30;82.78
77153;BME280;66124;51.146;17.072;2023-11-22T03:52:40;101086.38;;;-0.31;82.91
77153;BME280;66124;51.146;17.072;2023-11-22T03:55:10;101091.35;;;-0.34;82.79
77153;BME280;66124;51.146;17.072;2023-11-22T03:59:37;101094.54;;;-0.32;82.83
77153;BME280;66124;51.146;17.072;2023-11-22T04:02:08;101094.12;;;-0.34;82.66
77153;BME280;66124;51.146;17.072;2023-11-22T04:04:37;101096.39;;;-0.37;82.89
77153;BME280;66124;51.146;17.072;2023-11-22T04:07:07;101099.52;;;-0.38;82.86
77153;BME280;66124;51.146;17.072;2023-11-22T04:09:37;101096.03;;;-0.37;82.77
77153;BME280;66124;51.146;17.072;2023-11-22T04:12:07;101097.04;;;-0.36;82.71
77153;BME280;66124;51.146;17.072;2023-11-22T04:14:37;101099.85;;;-0.37;82.89
77153;BME280;66124;51.146;17.072;2023-11-22T04:17:06;101109.61;;;-0.39;82.60
77153;BME280;66124;51.146;17.072;2023-11-22T04:19:35;101112.07;;;-0.39;82.45
77153;BME280;66124;51.146;17.072;2023-11-22T04:22:05;101111.17;;;-0.42;82.47
77153;BME280;66124;51.146;17.072;2023-11-22T04:24:34;101111.39;;;-0.42;82.55
77153;BME280;66124;51.146;17.072;2023-11-22T04:27:04;101110.56;;;-0.43;82.45
77153;BME280;66124;51.146;17.072;2023-11-22T04:29:33;101104.67;;;-0.46;82.21
77153;BME280;66124;51.146;17.072;2023-11-22T04:32:04;101111.70;;;-0.48;82.13
77153;BME280;66124;51.146;17.072;2023-11-22T04:34:33;101120.08;;;-0.49;82.30
77153;BME280;66124;51.146;17.072;2023-11-22T04:37:03;101117.85;;;-0.49;81.95
77153;BME280;66124;51.146;17.072;2023-11-22T04:39:33;101125.61;;;-0.52;81.86
77153;BME280;66124;51.146;17.072;2023-11-22T04:42:03;101136.27;;;-0.55;81.73
77153;BME280;66124;51.146;17.072;2023-11-22T04:44:32;101136.58;;;-0.54;81.80
77153;BME280;66124;51.146;17.072;2023-11-22T04:47:02;101135.35;;;-0.53;81.90
77153;BME280;66124;51.146;17.072;2023-11-22T04:49:31;101139.18;;;-0.54;81.86
77153;BME280;66124;51.146;17.072;2023-11-22T04:52:01;101139.95;;;-0.56;81.82
77153;BME280;66124;51.146;17.072;2023-11-22T04:54:30;101140.80;;;-0.55;81.48
77153;BME280;66124;51.146;17.072;2023-11-22T04:57:00;101142.00;;;-0.55;81.72
77153;BME280;66124;51.146;17.072;2023-11-22T04:59:29;101145.07;;;-0.54;81.77
77153;BME280;66124;51.146;17.072;2023-11-22T05:01:59;101142.15;;;-0.55;81.62
77153;BME280;66124;51.146;17.072;2023-11-22T05:04:28;101135.42;;;-0.55;81.75
77153;BME280;66124;51.146;17.072;2023-11-22T05:06:57;101144.19;;;-0.54;81.81
77153;BME280;66124;51.146;17.072;2023-11-22T05:09:27;101154.11;;;-0.52;81.72
77153;BME280;66124;51.146;17.072;2023-11-22T05:11:55;101159.17;;;-0.50;81.64
77153;BME280;66124;51.146;17.072;2023-11-22T05:19:34;101177.92;;;-0.40;81.88
77153;BME280;66124;51.146;17.072;2023-11-22T05:22:04;101195.83;;;-0.39;81.90
77153;BME280;66124;51.146;17.072;2023-11-22T05:24:33;101201.81;;;-0.38;81.71
77153;BME280;66124;51.146;17.072;2023-11-22T05:27:03;101207.56;;;-0.36;81.68
77153;BME280;66124;51.146;17.072;2023-11-22T05:29:33;101212.64;;;-0.34;81.80
77153;BME280;66124;51.146;17.072;2023-11-22T05:32:03;101207.54;;;-0.33;81.77
77153;BME280;66124;51.146;17.072;2023-11-22T05:34:32;101210.35;;;-0.30;81.75
77153;BME280;66124;51.146;17.072;2023-11-22T05:37:02;101217.55;;;-0.29;81.72
77153;BME280;66124;51.146;17.072;2023-11-22T05:39:31;101229.40;;;-0.28;81.64
77153;BME280;66124;51.146;17.072;2023-11-22T05:42:01;101232.38;;;-0.26;81.83
77153;BME280;66124;51.146;17.072;2023-11-22T05:44:30;101241.06;;;-0.24;81.80
77153;BME280;66124;51.146;17.072;2023-11-22T05:46:59;101248.31;;;-0.21;81.80
77153;BME280;66124;51.146;17.072;2023-11-22T05:49:29;101250.77;;;-0.18;81.71
77153;BME280;66124;51.146;17.072;2023-11-22T05:51:58;101255.04;;;-0.17;81.75
77153;BME280;66124;51.146;17.072;2023-11-22T05:54:28;101260.41;;;-0.18;81.76
77153;BME280;66124;51.146;17.072;2023-11-22T05:56:57;101264.65;;;-0.19;81.61
77153;BME280;66124;51.146;17.072;2023-11-22T05:59:26;101266.20;;;-0.19;81.65
77153;BME280;66124;51.146;17.072;2023-11-22T06:01:56;101275.77;;;-0.20;81.53
77153;BME280;66124;51.146;17.072;2023-11-22T06:04:25;101284.20;;;-0.20;81.72
77153;BME280;66124;51.146;17.072;2023-11-22T06:06:55;101285.99;;;-0.21;81.58
77153;BME280;66124;51.146;17.072;2023-11-22T06:09:24;101291.58;;;-0.22;81.53
77153;BME280;66124;51.146;17.072;2023-11-22T06:11:54;101288.58;;;-0.24;81.58
77153;BME280;66124;51.146;17.072;2023-11-22T06:14:23;101296.02;;;-0.27;81.35
77153;BME280;66124;51.146;17.072;2023-11-22T06:16:53;101307.08;;;-0.30;81.15
77153;BME280;66124;51.146;17.072;2023-11-22T06:19:22;101302.38;;;-0.32;81.05
77153;BME280;66124;51.146;17.072;2023-11-22T06:21:52;101296.23;;;-0.37;80.56
77153;BME280;66124;51.146;17.072;2023-11-22T06:24:21;101295.49;;;-0.39;80.64
77153;BME280;66124;51.146;17.072;2023-11-22T06:26:51;101299.30;;;-0.40;80.87
77153;BME280;66124;51.146;17.072;2023-11-22T06:29:18;101299.17;;;-0.40;80.75
77153;BME280;66124;51.146;17.072;2023-11-22T06:31:46;101295.77;;;-0.41;80.65
77153;BME280;66124;51.146;17.072;2023-11-22T06:37:23;101307.36;;;-0.38;80.49
77153;BME280;66124;51.146;17.072;2023-11-22T06:39:52;101309.05;;;-0.41;80.40
77153;BME280;66124;51.146;17.072;2023-11-22T06:42:22;101314.94;;;-0.41;80.49
77153;BME280;66124;51.146;17.072;2023-11-22T06:44:51;101316.95;;;-0.40;80.37
77153;BME280;66124;51.146;17.072;2023-11-22T06:47:21;101307.45;;;-0.40;80.62
77153;BME280;66124;51.146;17.072;2023-11-22T06:49:51;101310.56;;;-0.40;80.58
77153;BME280;66124;51.146;17.072;2023-11-22T06:52:21;101321.84;;;-0.37;80.54
77153;BME280;66124;51.146;17.072;2023-11-22T06:54:50;101324.05;;;-0.34;80.71
77153;BME280;66124;51.146;17.072;2023-11-22T06:57:20;101327.27;;;-0.33;80.62
77153;BME280;66124;51.146;17.072;2023-11-22T06:59:49;101333.55;;;-0.31;80.48
77153;BME280;66124;51.146;17.072;2023-11-22T07:02:18;101341.27;;;-0.30;80.49
77153;BME280;66124;51.146;17.072;2023-11-22T07:04:48;101345.63;;;-0.27;80.39
77153;BME280;66124;51.146;17.072;2023-11-22T07:07:18;101354.48;;;-0.25;80.65
77153;BME280;66124;51.146;17.072;2023-11-22T07:09:47;101347.11;;;-0.26;80.09
77153;BME280;66124;51.146;17.072;2023-11-22T07:12:17;101343.21;;;-0.28;80.04
77153;BME280;66124;51.146;17.072;2023-11-22T07:14:46;101342.84;;;-0.27;80.16
77153;BME280;66124;51.146;17.072;2023-11-22T07:17:15;101345.88;;;-0.26;79.93
77153;BME280;66124;51.146;17.072;2023-11-22T07:19:45;101342.99;;;-0.24;80.17
77153;BME280;66124;51.146;17.072;2023-11-22T07:22:15;101339.06;;;-0.25;79.69
77153;BME280;66124;51.146;17.072;2023-11-22T07:24:45;101353.85;;;-0.20;79.74
77153;BME280;66124;51.146;17.072;2023-11-22T07:27:16;101359.94;;;-0.18;79.49
77153;BME280;66124;51.146;17.072;2023-11-22T07:29:46;101353.31;;;-0.17;79.42
77153;BME280;66124;51.146;17.072;2023-11-22T07:32:16;101354.27;;;-0.15;79.46
77153;BME280;66124;51.146;17.072;2023-11-22T07:34:45;101345.73;;;-0.14;79.50
77153;BME280;66124;51.146;17.072;2023-11-22T07:37:15;101343.22;;;-0.12;79.57
77153;BME280;66124;51.146;17.072;2023-11-22T07:39:44;101349.48;;;-0.10;79.43
77153;BME280;66124;51.146;17.072;2023-11-22T07:42:14;101349.71;;;-0.08;79.29
77153;BME280;66124;51.146;17.072;2023-11-22T07:44:43;101345.70;;;-0.04;79.22
77153;BME280;66124;51.146;17.072;2023-11-22T07:47:11;101354.18;;;-0.01;79.25
77153;BME280;66124;51.146;17.072;2023-11-22T07:49:40;101357.20;;;0.01;79.21
77153;BME280;66124;51.146;17.072;2023-11-22T07:57:18;101376.20;;;0.10;79.07
77153;BME280;66124;51.146;17.072;2023-11-22T07:59:47;101383.70;;;0.09;78.91
77153;BME280;66124;51.146;17.072;2023-11-22T08:02:17;101383.96;;;0.08;78.99
77153;BME280;66124;51.146;17.072;2023-11-22T08:04:46;101392.96;;;0.07;78.72
77153;BME280;66124;51.146;17.072;2023-11-22T08:07:16;101402.73;;;0.06;79.16
77153;BME280;66124;51.146;17.072;2023-11-22T08:09:46;101412.46;;;0.05;79.52
77153;BME280;66124;51.146;17.072;2023-11-22T08:12:16;101420.20;;;0.02;79.41
77153;BME280;66124;51.146;17.072;2023-11-22T08:14:45;101424.45;;;-0.03;79.37
77153;BME280;66124;51.146;17.072;2023-11-22T08:17:15;101429.09;;;-0.08;79.75
77153;BME280;66124;51.146;17.072;2023-11-22T08:19:44;101431.45;;;-0.14;79.81
77153;BME280;66124;51.146;17.072;2023-11-22T08:22:13;101439.50;;;-0.19;80.04
77153;BME280;66124;51.146;17.072;2023-11-22T08:24:43;101437.59;;;-0.22;80.10
77153;BME280;66124;51.146;17.072;2023-11-22T08:27:12;101444.96;;;-0.24;80.12
77153;BME280;66124;51.146;17.072;2023-11-22T08:29:42;101447.18;;;-0.23;80.62
77153;BME280;66124;51.146;17.072;2023-11-22T08:32:11;101447.11;;;-0.22;80.64
77153;BME280;66124;51.146;17.072;2023-11-22T08:34:41;101439.43;;;-0.24;80.41
77153;BME280;66124;51.146;17.072;2023-11-22T08:37:10;101438.79;;;-0.25;80.45
77153;BME280;66124;51.146;17.072;2023-11-22T08:39:39;101438.29;;;-0.25;80.79
77153;BME280;66124;51.146;17.072;2023-11-22T08:42:09;101428.46;;;-0.26;80.60
77153;BME280;66124;51.146;17.072;2023-11-22T08:44:39;101419.90;;;-0.24;80.75
77153;BME280;66124;51.146;17.072;2023-11-22T08:47:08;101413.42;;;-0.23;80.78
77153;BME280;66124;51.146;17.072;2023-11-22T08:49:38;101408.98;;;-0.23;80.63
77153;BME280;66124;51.146;17.072;2023-11-22T08:52:07;101402.52;;;-0.22;80.72
77153;BME280;66124;51.146;17.072;2023-11-22T08:54:37;101405.80;;;-0.22;80.70
77153;BME280;66124;51.146;17.072;2023-11-22T08:57:06;101408.69;;;-0.21;80.66
77153;BME280;66124;51.146;17.072;2023-11-22T08:59:38;101407.01;;;-0.19;80.30
77153;BME280;66124;51.146;17.072;2023-11-22T09:02:08;101406.28;;;-0.15;80.49
77153;BME280;66124;51.146;17.072;2023-11-22T09:04:37;101423.07;;;-0.12;80.35
77153;BME280;66124;51.146;17.072;2023-11-22T09:07:07;101427.66;;;-0.14;80.07
77153;BME280;66124;51.146;17.072;2023-11-22T09:09:34;101430.75;;;-0.11;79.99
77153;BME280;66124;51.146;17.072;2023-11-22T09:17:49;101406.48;;;0.07;79.64
77153;BME280;66124;51.146;17.072;2023-11-22T09:20:19;101411.78;;;0.11;79.45
77153;BME280;66124;51.146;17.072;2023-11-22T09:22:50;101420.90;;;0.12;79.36
77153;BME280;66124;51.146;17.072;2023-11-22T09:25:21;101424.31;;;0.09;79.05
77153;BME280;66124;51.146;17.072;2023-11-22T09:27:52;101412.30;;;0.04;78.95
77153;BME280;66124;51.146;17.072;2023-11-22T09:30:23;101417.78;;;-0.01;78.81
77153;BME280;66124;51.146;17.072;2023-11-22T09:35:41;101417.39;;;-0.06;78.67
77153;BME280;66124;51.146;17.072;2023-11-22T09:38:11;101407.30;;;-0.08;78.27
77153;BME280;66124;51.146;17.072;2023-11-22T09:40:43;101407.14;;;-0.09;78.35
77153;BME280;66124;51.146;17.072;2023-11-22T09:43:13;101401.25;;;-0.08;78.38
77153;BME280;66124;51.146;17.072;2023-11-22T09:45:43;101383.69;;;-0.10;78.26
77153;BME280;66124;51.146;17.072;2023-11-22T09:48:16;101392.94;;;-0.05;78.33
77153;BME280;66124;51.146;17.072;2023-11-22T09:53:50;101397.26;;;0.14;78.47
77153;BME280;66124;51.146;17.072;2023-11-22T09:56:21;101407.31;;;0.20;78.38
77153;BME280;66124;51.146;17.072;2023-11-22T09:58:53;101418.75;;;0.26;78.22
77153;BME280;66124;51.146;17.072;2023-11-22T10:01:24;101418.90;;;0.32;78.18
77153;BME280;66124;51.146;17.072;2023-11-22T10:03:54;101419.13;;;0.37;78.21
77153;BME280;66124;51.146;17.072;2023-11-22T10:06:23;101422.30;;;0.42;77.98
77153;BME280;66124;51.146;17.072;2023-11-22T10:08:52;101421.05;;;0.49;77.74
77153;BME280;66124;51.146;17.072;2023-11-22T10:11:22;101427.52;;;0.60;77.50
77153;BME280;66124;51.146;17.072;2023-11-22T10:13:52;101424.44;;;0.81;77.39
77153;BME280;66124;51.146;17.072;2023-11-22T10:16:21;101416.09;;;0.99;77.32
77153;BME280;66124;51.146;17.072;2023-11-22T10:18:51;101417.73;;;1.15;77.17
77153;BME280;66124;51.146;17.072;2023-11-22T10:21:25;101428.52;;;1.34;77.12
77153;BME280;66124;51.146;17.072;2023-11-22T10:23:56;101428.92;;;1.56;76.65
77153;BME280;66124;51.146;17.072;2023-11-22T10:26:26;101430.66;;;1.73;76.54
77153;BME280;66124;51.146;17.072;2023-11-22T10:28:56;101425.45;;;1.81;75.75
77153;BME280;66124;51.146;17.072;2023-11-22T10:31:26;101425.52;;;2.00;75.85
77153;BME280;66124;51.146;17.072;2023-11-22T10:33:56;101429.27;;;2.23;75.71
77153;BME280;66124;51.146;17.072;2023-11-22T10:36:25;101430.88;;;2.46;75.00
77153;BME280;66124;51.146;17.072;2023-11-22T10:38:55;101431.48;;;2.53;74.72
77153;BME280;66124;51.146;17.072;2023-11-22T10:41:24;101440.81;;;2.59;74.85
77153;BME280;66124;51.146;17.072;2023-11-22T10:43:54;101449.11;;;2.72;74.69
77153;BME280;66124;51.146;17.072;2023-11-22T10:46:27;101463.86;;;3.02;74.21
77153;BME280;66124;51.146;17.072;2023-11-22T10:48:57;101468.59;;;3.04;73.52
77153;BME280;66124;51.146;17.072;2023-11-22T10:51:30;101477.48;;;2.90;73.14
77153;BME280;66124;51.146;17.072;2023-11-22T10:54:00;101482.59;;;2.73;73.43
77153;BME280;66124;51.146;17.072;2023-11-22T10:56:36;101485.09;;;2.56;72.99
77153;BME280;66124;51.146;17.072;2023-11-22T10:59:10;101498.19;;;2.36;72.87
77153;BME280;66124;51.146;17.072;2023-11-22T11:01:45;101500.60;;;2.22;73.16
77153;BME280;66124;51.146;17.072;2023-11-22T11:04:23;101504.73;;;2.14;72.71
77153;BME280;66124;51.146;17.072;2023-11-22T11:06:53;101500.12;;;2.04;72.87
77153;BME280;66124;51.146;17.072;2023-11-22T11:14:46;101473.44;;;1.93;72.90
77153;BME280;66124;51.146;17.072;2023-11-22T11:17:16;101477.52;;;1.91;72.96
77153;BME280;66124;51.146;17.072;2023-11-22T11:19:46;101480.44;;;1.92;73.60
77153;BME280;66124;51.146;17.072;2023-11-22T11:22:15;101475.13;;;1.94;72.97
77153;BME280;66124;51.146;17.072;2023-11-22T11:24:48;101465.83;;;1.93;72.88
77153;BME280;66124;51.146;17.072;2023-11-22T11:27:29;101461.62;;;1.91;72.66
77153;BME280;66124;51.146;17.072;2023-11-22T11:29:58;101460.31;;;1.87;72.54
77153;BME280;66124;51.146;17.072;2023-11-22T11:32:34;101463.27;;;1.78;72.73
77153;BME280;66124;51.146;17.072;2023-11-22T11:35:05;101457.55;;;1.67;72.72
77153;BME280;66124;51.146;17.072;2023-11-22T11:37:34;101460.18;;;1.61;72.76
77153;BME280;66124;51.146;17.072;2023-11-22T11:40:26;101471.32;;;1.60;73.00
77153;BME280;66124;51.146;17.072;2023-11-22T11:42:57;101470.90;;;1.67;72.52
77153;BME280;66124;51.146;17.072;2023-11-22T11:45:28;101459.46;;;1.83;72.51
77153;BME280;66124;51.146;17.072;2023-11-22T11:47:58;101456.15;;;1.98;73.12
77153;BME280;66124;51.146;17.072;2023-11-22T11:50:27;101467.77;;;2.12;72.52
77153;BME280;66124;51.146;17.072;2023-11-22T11:52:56;101475.13;;;2.19;72.73
77153;BME280;66124;51.146;17.072;2023-11-22T11:55:27;101480.41;;;2.12;71.96
77153;BME280;66124;51.146;17.072;2023-11-22T11:57:57;101487.71;;;2.01;71.79
77153;BME280;66124;51.146;17.072;2023-11-22T12:00:33;101496.48;;;1.85;71.58
77153;BME280;66124;51.146;17.072;2023-11-22T12:03:04;101491.52;;;1.70;71.42
77153;BME280;66124;51.146;17.072;2023-11-22T12:05:34;101491.23;;;1.60;71.49
77153;BME280;66124;51.146;17.072;2023-11-22T12:08:04;101490.80;;;1.50;71.70
77153;BME280;66124;51.146;17.072;2023-11-22T12:10:34;101492.33;;;1.45;71.71
77153;BME280;66124;51.146;17.072;2023-11-22T12:13:03;101495.08;;;1.39;71.26
77153;BME280;66124;51.146;17.072;2023-11-22T12:15:33;101500.98;;;1.33;71.12
77153;BME280;66124;51.146;17.072;2023-11-22T12:18:02;101501.66;;;1.28;71.11
77153;BME280;66124;51.146;17.072;2023-11-22T12:20:32;101490.14;;;1.23;71.10
77153;BME280;66124;51.146;17.072;2023-11-22T12:23:02;101482.77;;;1.22;71.39
77153;BME280;66124;51.146;17.072;2023-11-22T12:25:32;101492.30;;;1.22;71.48
77153;BME280;66124;51.146;17.072;2023-11-22T12:34:01;101497.71;;;1.56;71.33
77153;BME280;66124;51.146;17.072;2023-11-22T12:36:30;101496.21;;;1.61;70.93
77153;BME280;66124;51.146;17.072;2023-11-22T12:39:00;101488.20;;;1.65;71.00
77153;BME280;66124;51.146;17.072;2023-11-22T12:41:30;101490.91;;;1.88;70.76
77153;BME280;66124;51.146;17.072;2023-11-22T12:44:07;101487.15;;;2.24;70.64
77153;BME280;66124;51.146;17.072;2023-11-22T12:46:50;101485.77;;;2.86;70.24
77153;BME280;66124;51.146;17.072;2023-11-22T12:49:20;101489.50;;;3.62;69.38
77153;BME280;66124;51.146;17.072;2023-11-22T12:51:50;101491.54;;;4.25;68.57
77153;BME280;66124;51.146;17.072;2023-11-22T12:54:20;101483.22;;;4.56;68.11
77153;BME280;66124;51.146;17.072;2023-11-22T12:56:51;101478.16;;;4.63;67.50
77153;BME280;66124;51.146;17.072;2023-11-22T12:59:21;101479.25;;;4.60;67.38
77153;BME280;66124;51.146;17.072;2023-11-22T13:01:51;101479.09;;;4.69;67.34
77153;BME280;66124;51.146;17.072;2023-11-22T13:04:20;101478.63;;;4.97;66.79
77153;BME280;66124;51.146;17.072;2023-11-22T13:06:50;101484.95;;;5.15;66.27
77153;BME280;66124;51.146;17.072;2023-11-22T13:09:19;101488.65;;;5.39;65.69
77153;BME280;66124;51.146;17.072;2023-11-22T13:11:49;101492.95;;;5.56;65.42
77153;BME280;66124;51.146;17.072;2023-11-22T13:14:18;101490.21;;;5.60;64.89
77153;BME280;66124;51.146;17.072;2023-11-22T13:16:48;101496.48;;;5.47;64.72
77153;BME280;66124;51.146;17.072;2023-11-22T13:19:17;101495.02;;;5.31;64.09
77153;BME280;66124;51.146;17.072;2023-11-22T13:21:47;101498.30;;;5.32;63.98
77153;BME280;66124;51.146;17.072;2023-11-22T13:24:16;101496.23;;;5.27;63.72
77153;BME280;66124;51.146;17.072;2023-11-22T13:26:46;101495.08;;;5.12;63.53
77153;BME280;66124;51.146;17.072;2023-11-22T13:29:15;101493.15;;;4.86;63.16
77153;BME280;66124;51.146;17.072;2023-11-22T13:31:45;101499.64;;;4.50;63.10
77153;BME280;66124;51.146;17.072;2023-11-22T13:34:14;101496.91;;;4.10;62.83
77153;BME280;66124;51.146;17.072;2023-11-22T13:36:45;101490.18;;;3.70;62.90
77153;BME280;66124;51.146;17.072;2023-11-22T13:39:14;101482.72;;;3.34;63.12
77153;BME280;66124;51.146;17.072;2023-11-22T13:41:43;101477.44;;;3.04;63.62
77153;BME280;66124;51.146;17.072;2023-11-22T13:44:11;101472.05;;;2.80;63.60
77153;BME280;66124;51.146;17.072;2023-11-22T13:46:40;101461.42;;;2.60;63.74
77153;BME280;66124;51.146;17.072;2023-11-22T13:53:38;101454.05;;;2.21;64.63
77153;BME280;66124;51.146;17.072;2023-11-22T13:56:09;101449.89;;;2.04;65.10